createdAt,value
2019-02-22T00:00:45.042Z,1003.93
2019-02-22T00:01:45.029Z,1003.97
2019-02-22T00:02:45.022Z,1003.98
2019-02-22T00:03:45.016Z,1003.97
2019-02-22T00:04:45.012Z,1003.95
2019-02-22T00:05:45.025Z,1003.99
2019-02-22T00:06:45.013Z,1004
2019-02-22T00:07:44.999Z,1004
2019-02-22T00:08:44.991Z,1003.99
2019-02-22T00:09:49.273Z,1004.06
2019-02-22T00:10:44.996Z,1004
2019-02-22T00:11:44.978Z,1003.96
2019-02-22T00:12:44.976Z,1003.98
2019-02-22T00:13:44.967Z,1003.98
2019-02-22T00:14:44.966Z,1003.98
2019-02-22T00:15:44.958Z,1003.95
2019-02-22T00:16:44.957Z,1003.95
2019-02-22T00:17:44.968Z,1003.98
2019-02-22T00:18:44.944Z,1003.97
2019-02-22T00:19:44.939Z,1003.94
2019-02-22T00:20:44.934Z,1003.96
2019-02-22T00:21:44.934Z,1003.97
2019-02-22T00:22:44.923Z,1003.99
2019-02-22T00:23:44.923Z,1004.01
2019-02-22T00:24:44.915Z,1004.02
2019-02-22T00:25:44.911Z,1004.03
2019-02-22T00:26:44.904Z,1004.01
2019-02-22T00:27:44.916Z,1003.99
2019-02-22T00:28:44.896Z,1004.03
2019-02-22T00:29:44.893Z,1004.03
2019-02-22T00:30:44.891Z,1004
2019-02-22T00:31:44.881Z,1004.04
2019-02-22T00:32:44.875Z,1004.02
2019-02-22T00:33:44.869Z,1004.01
2019-02-22T00:34:44.882Z,1003.97
2019-02-22T00:35:44.918Z,1003.98
2019-02-22T00:36:44.887Z,1003.96
2019-02-22T00:37:44.851Z,1003.97
2019-02-22T00:38:44.849Z,1003.99
2019-02-22T00:39:44.844Z,1004
2019-02-22T00:40:44.836Z,1003.99
2019-02-22T00:41:44.832Z,1004.01
2019-02-22T00:42:44.826Z,1004
2019-02-22T00:43:44.822Z,1004.04
2019-02-22T00:44:44.818Z,1004.02
2019-02-22T00:45:44.814Z,1004.01
2019-02-22T00:46:44.805Z,1004.06
2019-02-22T00:47:44.801Z,1004.04
2019-02-22T00:48:44.797Z,1004.08
2019-02-22T00:49:44.792Z,1004.12
2019-02-22T00:50:44.789Z,1004.14
2019-02-22T00:51:44.780Z,1004.13
2019-02-22T00:52:44.780Z,1004.14
2019-02-22T00:53:44.770Z,1004.14
2019-02-22T00:54:44.770Z,1004.13
2019-02-22T00:55:44.758Z,1004.13
2019-02-22T00:56:44.756Z,1004.13
2019-02-22T00:57:44.754Z,1004.13
2019-02-22T00:58:44.746Z,1004.12
2019-02-22T00:59:44.740Z,1004.09
2019-02-22T01:00:44.734Z,1004.08
2019-02-22T01:01:44.728Z,1004.06
2019-02-22T01:02:44.721Z,1004.1
2019-02-22T01:03:44.722Z,1004.08
2019-02-22T01:04:44.714Z,1004.17
2019-02-22T01:05:44.708Z,1004.15
2019-02-22T01:06:44.701Z,1004.14
2019-02-22T01:07:44.705Z,1004.15
2019-02-22T01:08:44.690Z,1004.14
2019-02-22T01:09:44.707Z,1004.13
2019-02-22T01:10:44.682Z,1004.1
2019-02-22T01:11:44.680Z,1004.08
2019-02-22T01:12:44.670Z,1004.07
2019-02-22T01:13:44.666Z,1004.04
2019-02-22T01:14:44.662Z,1004.02
2019-02-22T01:15:44.661Z,1004.06
2019-02-22T01:16:44.651Z,1004.06
2019-02-22T01:17:44.656Z,1004.08
2019-02-22T01:18:44.643Z,1004.1
2019-02-22T01:19:44.635Z,1004.11
2019-02-22T01:20:53.875Z,1004.05
2019-02-22T01:21:44.626Z,1004.07
2019-02-22T01:22:44.621Z,1004.15
2019-02-22T01:23:44.621Z,1004.13
2019-02-22T01:24:44.612Z,1004.13
2019-02-22T01:25:44.612Z,1004.1
2019-02-22T01:26:44.622Z,1004.1
2019-02-22T01:27:44.598Z,1004.08
2019-02-22T01:28:44.620Z,1004.07
2019-02-22T01:29:44.599Z,1004.05
2019-02-22T01:30:44.583Z,1004.04
2019-02-22T01:31:44.584Z,1004.02
2019-02-22T01:32:44.571Z,1003.96
2019-02-22T01:33:44.606Z,1003.95
2019-02-22T01:34:44.637Z,1003.91
2019-02-22T01:35:44.558Z,1003.85
2019-02-22T01:36:44.560Z,1003.88
2019-02-22T01:37:44.553Z,1003.86
2019-02-22T01:38:44.551Z,1003.89
2019-02-22T01:39:44.561Z,1003.89
2019-02-22T01:40:44.544Z,1003.93
2019-02-22T01:41:44.542Z,1003.92
2019-02-22T01:42:44.521Z,1003.89
2019-02-22T01:43:44.513Z,1003.92
2019-02-22T01:44:44.514Z,1003.87
2019-02-22T01:45:44.507Z,1003.94
2019-02-22T01:46:44.499Z,1003.93
2019-02-22T01:47:44.496Z,1003.96
2019-02-22T01:48:44.490Z,1003.96
2019-02-22T01:49:44.486Z,1003.98
2019-02-22T01:50:44.611Z,1003.97
2019-02-22T01:51:44.475Z,1003.96
2019-02-22T01:52:44.477Z,1003.95
2019-02-22T01:53:44.466Z,1003.96
2019-02-22T01:54:44.463Z,1003.98
2019-02-22T01:55:44.455Z,1004
2019-02-22T01:56:44.462Z,1003.98
2019-02-22T01:57:44.445Z,1004
2019-02-22T01:58:48.507Z,1004
2019-02-22T01:59:44.437Z,1004.04
2019-02-22T02:00:44.433Z,1004.03
2019-02-22T02:01:44.431Z,1004.06
2019-02-22T02:02:44.423Z,1004.05
2019-02-22T02:03:44.419Z,1004.05
2019-02-22T02:04:44.414Z,1004.03
2019-02-22T02:05:44.412Z,1004.04
2019-02-22T02:06:44.422Z,1004.09
2019-02-22T02:07:44.398Z,1004.03
2019-02-22T02:08:44.393Z,1004.05
2019-02-22T02:09:44.391Z,1004.08
2019-02-22T02:10:53.815Z,1004.02
2019-02-22T02:11:44.390Z,1004.09
2019-02-22T02:12:44.378Z,1004.09
2019-02-22T02:13:44.457Z,1004.08
2019-02-22T02:14:44.368Z,1004.07
2019-02-22T02:15:44.363Z,1004.07
2019-02-22T02:16:44.359Z,1004.15
2019-02-22T02:17:44.355Z,1004.13
2019-02-22T02:18:44.349Z,1004.13
2019-02-22T02:19:44.346Z,1004.12
2019-02-22T02:20:44.359Z,1004.12
2019-02-22T02:21:44.335Z,1004.15
2019-02-22T02:22:44.332Z,1004.13
2019-02-22T02:23:44.323Z,1004.09
2019-02-22T02:24:44.391Z,1004.08
2019-02-22T02:25:44.324Z,1004.09
2019-02-22T02:26:44.319Z,1004.07
2019-02-22T02:27:44.307Z,1004.09
2019-02-22T02:28:44.304Z,1004.08
2019-02-22T02:29:44.296Z,1004.09
2019-02-22T02:30:44.293Z,1004.09
2019-02-22T02:31:44.288Z,1004.09
2019-02-22T02:32:44.283Z,1004.1
2019-02-22T02:33:44.277Z,1004.09
2019-02-22T02:34:44.274Z,1004.07
2019-02-22T02:35:44.288Z,1004.13
2019-02-22T02:36:44.265Z,1004.15
2019-02-22T02:37:44.259Z,1004.13
2019-02-22T02:38:44.261Z,1004.12
2019-02-22T02:39:44.251Z,1004.19
2019-02-22T02:40:44.248Z,1004.16
2019-02-22T02:41:44.240Z,1004.21
2019-02-22T02:42:44.237Z,1004.2
2019-02-22T02:43:44.233Z,1004.24
2019-02-22T02:44:44.228Z,1004.24
2019-02-22T02:45:44.239Z,1004.24
2019-02-22T02:46:44.220Z,1004.26
2019-02-22T02:47:44.218Z,1004.25
2019-02-22T02:48:44.213Z,1004.24
2019-02-22T02:49:44.210Z,1004.27
2019-02-22T02:50:44.216Z,1004.25
2019-02-22T02:51:44.208Z,1004.26
2019-02-22T02:52:44.195Z,1004.29
2019-02-22T02:53:44.188Z,1004.27
2019-02-22T02:54:44.183Z,1004.3
2019-02-22T02:55:44.178Z,1004.3
2019-02-22T02:56:46.222Z,1004.27
2019-02-22T02:57:44.170Z,1004.3
2019-02-22T02:58:44.166Z,1004.33
2019-02-22T02:59:44.161Z,1004.35
2019-02-22T03:00:44.157Z,1004.39
2019-02-22T03:01:44.169Z,1004.37
2019-02-22T03:02:44.153Z,1004.33
2019-02-22T03:03:44.152Z,1004.37
2019-02-22T03:04:44.142Z,1004.42
2019-02-22T03:05:44.134Z,1004.4
2019-02-22T03:06:44.131Z,1004.42
2019-02-22T03:07:44.127Z,1004.39
2019-02-22T03:08:44.123Z,1004.41
2019-02-22T03:09:44.118Z,1004.44
2019-02-22T03:10:44.114Z,1004.43
2019-02-22T03:11:44.109Z,1004.44
2019-02-22T03:12:44.105Z,1004.44
2019-02-22T03:13:44.113Z,1004.44
2019-02-22T03:14:44.094Z,1004.42
2019-02-22T03:15:44.093Z,1004.42
2019-02-22T03:16:44.094Z,1004.45
2019-02-22T03:17:44.103Z,1004.46
2019-02-22T03:18:44.079Z,1004.5
2019-02-22T03:19:44.075Z,1004.44
2019-02-22T03:20:44.069Z,1004.47
2019-02-22T03:21:44.067Z,1004.49
2019-02-22T03:22:44.061Z,1004.5
2019-02-22T03:23:44.068Z,1004.46
2019-02-22T03:24:44.057Z,1004.53
2019-02-22T03:25:44.048Z,1004.57
2019-02-22T03:26:44.047Z,1004.52
2019-02-22T03:27:44.049Z,1004.58
2019-02-22T03:28:44.053Z,1004.53
2019-02-22T03:29:44.041Z,1004.54
2019-02-22T03:30:44.030Z,1004.59
2019-02-22T03:31:44.022Z,1004.57
2019-02-22T03:32:44.019Z,1004.56
2019-02-22T03:33:44.016Z,1004.62
2019-02-22T03:34:44.008Z,1004.61
2019-02-22T03:35:44.003Z,1004.63
2019-02-22T03:36:44.000Z,1004.63
2019-02-22T03:37:43.994Z,1004.64
2019-02-22T03:38:43.989Z,1004.65
2019-02-22T03:39:43.991Z,1004.62
2019-02-22T03:40:43.989Z,1004.64
2019-02-22T03:41:43.976Z,1004.66
2019-02-22T03:42:43.973Z,1004.64
2019-02-22T03:43:43.975Z,1004.57
2019-02-22T03:44:43.966Z,1004.55
2019-02-22T03:45:43.962Z,1004.57
2019-02-22T03:46:43.956Z,1004.63
2019-02-22T03:47:43.951Z,1004.58
2019-02-22T03:48:43.955Z,1004.57
2019-02-22T03:49:43.943Z,1004.57
2019-02-22T03:50:43.938Z,1004.56
2019-02-22T03:51:43.942Z,1004.62
2019-02-22T03:52:43.929Z,1004.6
2019-02-22T03:53:43.925Z,1004.63
2019-02-22T03:54:43.925Z,1004.64
2019-02-22T03:55:43.915Z,1004.63
2019-02-22T03:56:43.909Z,1004.71
2019-02-22T03:57:43.909Z,1004.68
2019-02-22T03:58:43.907Z,1004.66
2019-02-22T03:59:43.898Z,1004.68
2019-02-22T04:00:43.898Z,1004.73
2019-02-22T04:01:43.891Z,1004.67
2019-02-22T04:02:43.895Z,1004.7
2019-02-22T04:03:43.886Z,1004.69
2019-02-22T04:04:43.879Z,1004.69
2019-02-22T04:05:43.869Z,1004.72
2019-02-22T04:06:43.865Z,1004.69
2019-02-22T04:07:43.862Z,1004.69
2019-02-22T04:08:43.857Z,1004.74
2019-02-22T04:09:43.852Z,1004.75
2019-02-22T04:10:43.851Z,1004.79
2019-02-22T04:11:45.896Z,1004.8
2019-02-22T04:12:43.836Z,1004.81
2019-02-22T04:13:43.838Z,1004.82
2019-02-22T04:14:43.835Z,1004.84
2019-02-22T04:15:43.830Z,1004.85
2019-02-22T04:16:43.821Z,1004.8
2019-02-22T04:17:43.814Z,1004.86
2019-02-22T04:18:43.809Z,1004.86
2019-02-22T04:19:43.802Z,1004.86
2019-02-22T04:20:43.799Z,1004.86
2019-02-22T04:21:43.795Z,1004.88
2019-02-22T04:22:44.662Z,1004.88
2019-02-22T04:23:43.787Z,1004.93
2019-02-22T04:24:43.815Z,1004.93
2019-02-22T04:25:43.775Z,1004.94
2019-02-22T04:26:43.774Z,1004.97
2019-02-22T04:27:43.766Z,1004.99
2019-02-22T04:28:44.561Z,1004.96
2019-02-22T04:29:43.757Z,1004.98
2019-02-22T04:30:43.758Z,1004.98
2019-02-22T04:31:43.743Z,1004.97
2019-02-22T04:32:43.739Z,1004.97
2019-02-22T04:33:43.736Z,1005.04
2019-02-22T04:34:43.726Z,1005.09
2019-02-22T04:35:43.722Z,1005.07
2019-02-22T04:36:43.719Z,1005.03
2019-02-22T04:37:43.720Z,1005.09
2019-02-22T04:38:43.708Z,1005.06
2019-02-22T04:39:43.707Z,1005.05
2019-02-22T04:40:43.699Z,1005.11
2019-02-22T04:41:43.703Z,1005.14
2019-02-22T04:42:43.686Z,1005.12
2019-02-22T04:43:43.689Z,1005.16
2019-02-22T04:44:43.678Z,1005.16
2019-02-22T04:45:43.677Z,1005.22
2019-02-22T04:46:43.675Z,1005.2
2019-02-22T04:47:43.667Z,1005.21
2019-02-22T04:48:43.660Z,1005.21
2019-02-22T04:49:43.652Z,1005.19
2019-02-22T04:50:43.644Z,1005.22
2019-02-22T04:51:43.641Z,1005.19
2019-02-22T04:52:43.636Z,1005.22
2019-02-22T04:53:43.635Z,1005.24
2019-02-22T04:54:43.622Z,1005.27
2019-02-22T04:55:43.616Z,1005.28
2019-02-22T04:56:43.612Z,1005.23
2019-02-22T04:57:43.609Z,1005.3
2019-02-22T04:58:43.607Z,1005.27
2019-02-22T04:59:43.596Z,1005.28
2019-02-22T05:00:43.603Z,1005.29
2019-02-22T05:01:43.597Z,1005.3
2019-02-22T05:02:43.604Z,1005.32
2019-02-22T05:03:43.606Z,1005.35
2019-02-22T05:04:43.569Z,1005.34
2019-02-22T05:05:43.569Z,1005.36
2019-02-22T05:06:43.562Z,1005.35
2019-02-22T05:07:43.560Z,1005.4
2019-02-22T05:08:43.554Z,1005.4
2019-02-22T05:09:43.557Z,1005.4
2019-02-22T05:10:43.562Z,1005.45
2019-02-22T05:11:43.540Z,1005.38
2019-02-22T05:12:43.530Z,1005.4
2019-02-22T05:13:43.528Z,1005.34
2019-02-22T05:14:43.541Z,1005.34
2019-02-22T05:15:43.539Z,1005.32
2019-02-22T05:16:43.515Z,1005.32
2019-02-22T05:17:43.504Z,1005.32
2019-02-22T05:18:43.502Z,1005.28
2019-02-22T05:19:43.502Z,1005.24
2019-02-22T05:20:43.497Z,1005.28
2019-02-22T05:21:43.490Z,1005.29
2019-02-22T05:22:43.488Z,1005.29
2019-02-22T05:23:43.475Z,1005.3
2019-02-22T05:24:43.472Z,1005.29
2019-02-22T05:25:43.469Z,1005.31
2019-02-22T05:26:43.472Z,1005.3
2019-02-22T05:27:43.468Z,1005.33
2019-02-22T05:28:43.453Z,1005.3
2019-02-22T05:29:43.449Z,1005.34
2019-02-22T05:30:43.447Z,1005.31
2019-02-22T05:31:43.436Z,1005.36
2019-02-22T05:32:43.429Z,1005.39
2019-02-22T05:33:43.427Z,1005.43
2019-02-22T05:34:43.425Z,1005.43
2019-02-22T05:35:43.413Z,1005.41
2019-02-22T05:36:44.342Z,1005.42
2019-02-22T05:37:43.404Z,1005.4
2019-02-22T05:38:43.396Z,1005.45
2019-02-22T05:39:43.390Z,1005.42
2019-02-22T05:40:43.383Z,1005.48
2019-02-22T05:41:43.381Z,1005.51
2019-02-22T05:42:43.377Z,1005.51
2019-02-22T05:43:43.374Z,1005.5
2019-02-22T05:44:43.362Z,1005.5
2019-02-22T05:45:43.361Z,1005.49
2019-02-22T05:46:43.366Z,1005.54
2019-02-22T05:47:43.349Z,1005.59
2019-02-22T05:48:43.345Z,1005.56
2019-02-22T05:49:43.337Z,1005.57
2019-02-22T05:50:43.337Z,1005.54
2019-02-22T05:51:43.329Z,1005.54
2019-02-22T05:52:43.331Z,1005.5
2019-02-22T05:53:43.316Z,1005.55
2019-02-22T05:54:43.312Z,1005.55
2019-02-22T05:55:44.370Z,1005.58
2019-02-22T05:56:43.300Z,1005.58
2019-02-22T05:57:43.300Z,1005.57
2019-02-22T05:58:43.296Z,1005.57
2019-02-22T05:59:43.289Z,1005.62
2019-02-22T06:00:43.279Z,1005.66
2019-02-22T06:01:43.284Z,1005.65
2019-02-22T06:02:43.269Z,1005.65
2019-02-22T06:03:43.280Z,1005.63
2019-02-22T06:04:43.298Z,1005.62
2019-02-22T06:05:43.258Z,1005.64
2019-02-22T06:06:43.253Z,1005.62
2019-02-22T06:07:43.263Z,1005.61
2019-02-22T06:08:43.242Z,1005.54
2019-02-22T06:09:43.244Z,1005.59
2019-02-22T06:10:43.227Z,1005.56
2019-02-22T06:11:43.227Z,1005.54
2019-02-22T06:12:43.223Z,1005.56
2019-02-22T06:13:43.224Z,1005.59
2019-02-22T06:14:43.214Z,1005.65
2019-02-22T06:15:43.208Z,1005.68
2019-02-22T06:16:43.204Z,1005.74
2019-02-22T06:17:43.193Z,1005.74
2019-02-22T06:18:43.184Z,1005.76
2019-02-22T06:19:43.189Z,1005.76
2019-02-22T06:20:43.186Z,1005.78
2019-02-22T06:21:43.169Z,1005.85
2019-02-22T06:22:43.166Z,1005.87
2019-02-22T06:23:43.173Z,1005.93
2019-02-22T06:24:43.151Z,1005.91
2019-02-22T06:25:43.146Z,1005.97
2019-02-22T06:26:43.140Z,1005.97
2019-02-22T06:27:43.135Z,1005.98
2019-02-22T06:28:43.130Z,1006.02
2019-02-22T06:29:43.123Z,1006.01
2019-02-22T06:30:43.120Z,1006.04
2019-02-22T06:31:43.113Z,1006.04
2019-02-22T06:32:43.115Z,1006.07
2019-02-22T06:33:43.111Z,1006.1
2019-02-22T06:34:43.106Z,1006.12
2019-02-22T06:35:43.092Z,1006.15
2019-02-22T06:36:43.088Z,1006.13
2019-02-22T06:37:43.087Z,1006.16
2019-02-22T06:38:43.079Z,1006.18
2019-02-22T06:39:43.070Z,1006.21
2019-02-22T06:40:43.085Z,1006.18
2019-02-22T06:41:43.150Z,1006.18
2019-02-22T06:42:45.999Z,1006.21
2019-02-22T06:43:43.049Z,1006.17
2019-02-22T06:44:43.046Z,1006.19
2019-02-22T06:45:43.058Z,1006.18
2019-02-22T06:46:43.032Z,1006.18
2019-02-22T06:47:43.030Z,1006.17
2019-02-22T06:48:43.023Z,1006.19
2019-02-22T06:49:44.484Z,1006.23
2019-02-22T06:50:43.011Z,1006.21
2019-02-22T06:51:43.023Z,1006.22
2019-02-22T06:52:43.028Z,1006.24
2019-02-22T06:53:42.993Z,1006.25
2019-02-22T06:54:42.997Z,1006.24
2019-02-22T06:55:42.992Z,1006.27
2019-02-22T06:56:42.982Z,1006.28
2019-02-22T06:57:42.971Z,1006.32
2019-02-22T06:58:42.969Z,1006.33
2019-02-22T06:59:42.981Z,1006.34
2019-02-22T07:00:42.963Z,1006.36
2019-02-22T07:01:42.955Z,1006.32
2019-02-22T07:02:42.953Z,1006.32
2019-02-22T07:03:42.942Z,1006.32
2019-02-22T07:04:42.938Z,1006.33
2019-02-22T07:05:42.933Z,1006.35
2019-02-22T07:06:42.926Z,1006.37
2019-02-22T07:07:42.921Z,1006.39
2019-02-22T07:08:42.914Z,1006.39
2019-02-22T07:09:42.918Z,1006.38
2019-02-22T07:10:42.906Z,1006.35
2019-02-22T07:11:42.906Z,1006.38
2019-02-22T07:12:42.893Z,1006.42
2019-02-22T07:13:42.896Z,1006.43
2019-02-22T07:14:42.882Z,1006.39
2019-02-22T07:15:42.879Z,1006.38
2019-02-22T07:16:42.870Z,1006.37
2019-02-22T07:17:42.868Z,1006.38
2019-02-22T07:18:42.861Z,1006.39
2019-02-22T07:19:42.910Z,1006.37
2019-02-22T07:20:42.861Z,1006.41
2019-02-22T07:21:52.037Z,1006.4
2019-02-22T07:22:42.841Z,1006.41
2019-02-22T07:23:42.845Z,1006.44
2019-02-22T07:24:42.831Z,1006.44
2019-02-22T07:25:42.827Z,1006.43
2019-02-22T07:26:42.821Z,1006.47
2019-02-22T07:27:42.815Z,1006.47
2019-02-22T07:28:42.806Z,1006.53
2019-02-22T07:29:42.802Z,1006.53
2019-02-22T07:30:42.809Z,1006.53
2019-02-22T07:31:42.795Z,1006.55
2019-02-22T07:32:42.902Z,1006.57
2019-02-22T07:33:42.795Z,1006.57
2019-02-22T07:34:42.777Z,1006.59
2019-02-22T07:35:42.773Z,1006.57
2019-02-22T07:36:42.766Z,1006.58
2019-02-22T07:37:42.766Z,1006.58
2019-02-22T07:38:42.782Z,1006.57
2019-02-22T07:39:42.753Z,1006.62
2019-02-22T07:40:42.746Z,1006.67
2019-02-22T07:41:42.739Z,1006.63
2019-02-22T07:42:42.747Z,1006.7
2019-02-22T07:43:42.750Z,1006.68
2019-02-22T07:44:42.723Z,1006.69
2019-02-22T07:45:42.727Z,1006.67
2019-02-22T07:46:42.716Z,1006.68
2019-02-22T07:47:42.710Z,1006.66
2019-02-22T07:48:42.710Z,1006.65
2019-02-22T07:49:42.699Z,1006.68
2019-02-22T07:50:42.692Z,1006.73
2019-02-22T07:51:42.685Z,1006.73
2019-02-22T07:52:45.194Z,1006.79
2019-02-22T07:53:42.675Z,1006.77
2019-02-22T07:54:42.706Z,1006.8
2019-02-22T07:55:42.670Z,1006.84
2019-02-22T07:56:42.686Z,1006.82
2019-02-22T07:57:42.667Z,1006.83
2019-02-22T07:58:42.660Z,1006.86
2019-02-22T07:59:42.653Z,1006.88
2019-02-22T08:00:42.656Z,1006.93
2019-02-22T08:01:47.060Z,1006.91
2019-02-22T08:02:42.629Z,1006.92
2019-02-22T08:03:42.625Z,1006.84
2019-02-22T08:04:42.622Z,1006.88
2019-02-22T08:05:42.616Z,1006.98
2019-02-22T08:06:42.694Z,1006.98
2019-02-22T08:07:42.607Z,1006.99
2019-02-22T08:08:42.604Z,1007.01
2019-02-22T08:09:42.595Z,1006.98
2019-02-22T08:10:42.598Z,1006.95
2019-02-22T08:11:42.602Z,1006.98
2019-02-22T08:12:42.576Z,1006.96
2019-02-22T08:13:42.571Z,1006.94
2019-02-22T08:14:42.589Z,1006.92
2019-02-22T08:15:42.591Z,1006.95
2019-02-22T08:16:42.560Z,1006.94
2019-02-22T08:17:42.555Z,1006.98
2019-02-22T08:18:42.554Z,1006.98
2019-02-22T08:19:42.542Z,1006.98
2019-02-22T08:20:42.536Z,1006.97
2019-02-22T08:21:42.531Z,1006.97
2019-02-22T08:22:42.529Z,1006.96
2019-02-22T08:23:42.525Z,1006.94
2019-02-22T08:24:42.518Z,1007.02
2019-02-22T08:25:42.511Z,1007.03
2019-02-22T08:26:42.507Z,1007.09
2019-02-22T08:27:52.925Z,1007.11
2019-02-22T08:28:42.498Z,1007.12
2019-02-22T08:29:42.497Z,1007.14
2019-02-22T08:30:42.498Z,1007.15
2019-02-22T08:31:42.489Z,1007.14
2019-02-22T08:32:42.485Z,1007.13
2019-02-22T08:33:42.479Z,1007.14
2019-02-22T08:34:42.470Z,1007.16
2019-02-22T08:35:42.467Z,1007.2
2019-02-22T08:36:42.462Z,1007.28
2019-02-22T08:37:42.461Z,1007.29
2019-02-22T08:38:42.455Z,1007.33
2019-02-22T08:39:42.451Z,1007.31
2019-02-22T08:40:42.447Z,1007.22
2019-02-22T08:41:42.449Z,1007.19
2019-02-22T08:42:42.438Z,1007.2
2019-02-22T08:43:42.434Z,1007.16
2019-02-22T08:44:42.431Z,1007.17
2019-02-22T08:45:42.426Z,1007.21
2019-02-22T08:46:42.424Z,1007.17
2019-02-22T08:47:42.419Z,1007.2
2019-02-22T08:48:42.424Z,1007.31
2019-02-22T08:49:42.413Z,1007.28
2019-02-22T08:50:42.409Z,1007.24
2019-02-22T08:51:42.402Z,1007.27
2019-02-22T08:52:42.409Z,1007.25
2019-02-22T08:53:42.395Z,1007.22
2019-02-22T08:54:46.796Z,1007.19
2019-02-22T08:55:43.192Z,1007.18
2019-02-22T08:56:42.384Z,1007.22
2019-02-22T08:57:42.381Z,1007.14
2019-02-22T08:58:42.376Z,1007.18
2019-02-22T08:59:42.375Z,1007.17
2019-02-22T09:00:42.373Z,1007.21
2019-02-22T09:01:42.373Z,1007.16
2019-02-22T09:02:42.378Z,1007.19
2019-02-22T09:03:50.057Z,1007.18
2019-02-22T09:04:42.355Z,1007.17
2019-02-22T09:05:42.354Z,1007.19
2019-02-22T09:06:42.353Z,1007.18
2019-02-22T09:07:42.353Z,1007.26
2019-02-22T09:08:42.346Z,1007.26
2019-02-22T09:09:42.362Z,1007.29
2019-02-22T09:10:42.339Z,1007.3
2019-02-22T09:11:42.340Z,1007.28
2019-02-22T09:12:42.332Z,1007.23
2019-02-22T09:13:43.752Z,1007.27
2019-02-22T09:14:42.324Z,1007.33
2019-02-22T09:15:42.322Z,1007.39
2019-02-22T09:16:42.323Z,1007.41
2019-02-22T09:17:42.322Z,1007.37
2019-02-22T09:18:42.324Z,1007.36
2019-02-22T09:19:42.312Z,1007.33
2019-02-22T09:20:42.321Z,1007.37
2019-02-22T09:21:42.302Z,1007.35
2019-02-22T09:22:42.298Z,1007.31
2019-02-22T09:23:42.299Z,1007.32
2019-02-22T09:24:42.293Z,1007.32
2019-02-22T09:25:42.289Z,1007.32
2019-02-22T09:26:42.287Z,1007.35
2019-02-22T09:27:42.284Z,1007.37
2019-02-22T09:28:42.291Z,1007.4
2019-02-22T09:29:42.286Z,1007.41
2019-02-22T09:30:42.273Z,1007.4
2019-02-22T09:31:42.269Z,1007.39
2019-02-22T09:32:42.266Z,1007.45
2019-02-22T09:33:42.263Z,1007.47
2019-02-22T09:34:42.261Z,1007.46
2019-02-22T09:35:42.296Z,1007.49
2019-02-22T09:36:42.253Z,1007.5
2019-02-22T09:37:42.249Z,1007.51
2019-02-22T09:38:42.251Z,1007.49
2019-02-22T09:39:42.243Z,1007.54
2019-02-22T09:40:42.239Z,1007.53
2019-02-22T09:41:42.235Z,1007.56
2019-02-22T09:42:42.233Z,1007.56
2019-02-22T09:43:42.232Z,1007.57
2019-02-22T09:44:42.236Z,1007.55
2019-02-22T09:45:42.222Z,1007.52
2019-02-22T09:46:42.221Z,1007.47
2019-02-22T09:47:42.217Z,1007.48
2019-02-22T09:48:42.211Z,1007.48
2019-02-22T09:49:42.208Z,1007.49
2019-02-22T09:50:42.207Z,1007.54
2019-02-22T09:51:42.202Z,1007.49
2019-02-22T09:52:42.207Z,1007.5
2019-02-22T09:53:42.210Z,1007.54
2019-02-22T09:54:42.192Z,1007.56
2019-02-22T09:55:42.188Z,1007.54
2019-02-22T09:56:42.185Z,1007.57
2019-02-22T09:57:42.192Z,1007.55
2019-02-22T09:58:42.284Z,1007.56
2019-02-22T09:59:42.174Z,1007.61
2019-02-22T10:00:42.173Z,1007.64
2019-02-22T10:01:42.170Z,1007.66
2019-02-22T10:02:44.624Z,1007.64
2019-02-22T10:03:42.173Z,1007.67
2019-02-22T10:04:42.162Z,1007.66
2019-02-22T10:05:42.166Z,1007.65
2019-02-22T10:06:42.161Z,1007.63
2019-02-22T10:07:42.154Z,1007.61
2019-02-22T10:08:42.156Z,1007.61
2019-02-22T10:09:42.170Z,1007.63
2019-02-22T10:10:42.161Z,1007.66
2019-02-22T10:11:42.140Z,1007.65
2019-02-22T10:12:42.202Z,1007.7
2019-02-22T10:13:42.137Z,1007.69
2019-02-22T10:14:42.133Z,1007.71
2019-02-22T10:15:42.129Z,1007.73
2019-02-22T10:16:42.126Z,1007.75
2019-02-22T10:17:42.134Z,1007.72
2019-02-22T10:18:42.123Z,1007.7
2019-02-22T10:19:42.119Z,1007.75
2019-02-22T10:20:42.115Z,1007.74
2019-02-22T10:21:42.110Z,1007.72
2019-02-22T10:22:42.109Z,1007.73
2019-02-22T10:23:42.105Z,1007.71
2019-02-22T10:24:42.110Z,1007.79
2019-02-22T10:25:42.100Z,1007.84
2019-02-22T10:26:42.102Z,1007.74
2019-02-22T10:27:42.102Z,1007.79
2019-02-22T10:28:42.106Z,1007.8
2019-02-22T10:29:42.090Z,1007.8
2019-02-22T10:30:42.086Z,1007.8
2019-02-22T10:31:42.104Z,1007.8
2019-02-22T10:32:42.085Z,1007.84
2019-02-22T10:33:42.077Z,1007.9
2019-02-22T10:34:42.075Z,1007.89
2019-02-22T10:35:42.079Z,1007.89
2019-02-22T10:36:44.942Z,1007.88
2019-02-22T10:37:42.066Z,1007.94
2019-02-22T10:38:42.061Z,1008
2019-02-22T10:39:42.057Z,1008
2019-02-22T10:40:42.057Z,1008.01
2019-02-22T10:41:42.054Z,1008
2019-02-22T10:42:42.050Z,1008.04
2019-02-22T10:43:42.070Z,1007.98
2019-02-22T10:44:42.055Z,1007.96
2019-02-22T10:45:42.044Z,1007.96
2019-02-22T10:46:42.039Z,1007.91
2019-02-22T10:47:42.036Z,1007.94
2019-02-22T10:48:42.034Z,1008.01
2019-02-22T10:49:42.030Z,1008.02
2019-02-22T10:50:42.029Z,1007.99
2019-02-22T10:51:42.024Z,1007.97
2019-02-22T10:52:42.090Z,1007.92
2019-02-22T10:53:42.021Z,1007.92
2019-02-22T10:54:42.020Z,1007.93
2019-02-22T10:55:42.017Z,1007.91
2019-02-22T10:56:42.014Z,1007.85
2019-02-22T10:57:42.018Z,1007.85
2019-02-22T10:58:42.017Z,1007.9
2019-02-22T10:59:42.005Z,1007.86
2019-02-22T11:00:42.004Z,1007.9
2019-02-22T11:01:42.003Z,1007.94
2019-02-22T11:02:42.000Z,1007.89
2019-02-22T11:03:41.999Z,1007.87
2019-02-22T11:04:42.004Z,1007.87
2019-02-22T11:05:41.996Z,1007.86
2019-02-22T11:06:41.993Z,1007.84
2019-02-22T11:07:42.000Z,1007.85
2019-02-22T11:08:41.993Z,1007.79
2019-02-22T11:09:41.987Z,1007.83
2019-02-22T11:10:41.984Z,1007.79
2019-02-22T11:11:41.982Z,1007.86
2019-02-22T11:12:41.978Z,1007.85
2019-02-22T11:13:41.975Z,1007.85
2019-02-22T11:14:41.975Z,1007.95
2019-02-22T11:15:41.970Z,1007.99
2019-02-22T11:16:41.971Z,1008.03
2019-02-22T11:17:41.982Z,1007.9
2019-02-22T11:18:41.967Z,1007.94
2019-02-22T11:19:41.965Z,1007.88
2019-02-22T11:20:41.972Z,1007.9
2019-02-22T11:21:41.960Z,1007.85
2019-02-22T11:22:41.957Z,1007.88
2019-02-22T11:23:41.952Z,1007.91
2019-02-22T11:24:41.978Z,1007.95
2019-02-22T11:25:41.950Z,1007.92
2019-02-22T11:26:41.942Z,1007.92
2019-02-22T11:27:41.940Z,1007.89
2019-02-22T11:28:41.943Z,1007.91
2019-02-22T11:29:41.939Z,1007.89
2019-02-22T11:30:41.934Z,1007.86
2019-02-22T11:31:42.088Z,1007.89
2019-02-22T11:32:41.928Z,1007.87
2019-02-22T11:33:41.930Z,1007.9
2019-02-22T11:34:41.922Z,1007.83
2019-02-22T11:35:41.920Z,1007.89
2019-02-22T11:36:41.923Z,1007.88
2019-02-22T11:37:41.918Z,1007.93
2019-02-22T11:38:41.915Z,1007.86
2019-02-22T11:39:41.915Z,1007.92
2019-02-22T11:40:41.914Z,1007.93
2019-02-22T11:41:41.910Z,1007.95
2019-02-22T11:42:41.901Z,1007.87
2019-02-22T11:43:41.901Z,1007.87
2019-02-22T11:44:41.896Z,1007.86
2019-02-22T11:45:41.891Z,1007.91
2019-02-22T11:46:41.892Z,1007.9
2019-02-22T11:47:41.890Z,1007.87
2019-02-22T11:48:41.886Z,1007.86
2019-02-22T11:49:41.884Z,1007.9
2019-02-22T11:50:41.883Z,1007.89
2019-02-22T11:51:41.878Z,1007.9
2019-02-22T11:52:41.884Z,1007.9
2019-02-22T11:53:41.896Z,1007.9
2019-02-22T11:54:41.884Z,1007.96
2019-02-22T11:55:41.874Z,1007.99
2019-02-22T11:56:41.869Z,1007.96
2019-02-22T11:57:41.870Z,1007.94
2019-02-22T11:58:41.866Z,1007.93
2019-02-22T11:59:41.864Z,1007.92
2019-02-22T12:00:41.860Z,1007.93
2019-02-22T12:01:41.862Z,1007.91
2019-02-22T12:02:41.861Z,1007.9
2019-02-22T12:03:41.857Z,1007.91
2019-02-22T12:04:41.853Z,1007.96
2019-02-22T12:05:41.856Z,1007.97
2019-02-22T12:06:41.851Z,1007.88
2019-02-22T12:07:41.850Z,1007.93
2019-02-22T12:08:41.849Z,1007.89